Time,TemperatureF,DewpointF,PressureIn,WindDirection,WindDirectionDegrees,WindSpeedMPH,WindSpeedGustMPH,Humidity,HourlyPrecipIn,Conditions,Clouds,dailyrainin,SoftwareType,DateUTC
2013-03-22 00:00:00,10.5,6.6,30.07,ESE,118,3.0,10.0,84,0.00,,,0.00,VWS V14.01,2013-03-22 05:00:00,
2013-03-22 00:02:00,9.5,5.6,30.07,ESE,109,3.0,5.0,84,0.00,,,0.00,VWS V14.01,2013-03-22 05:02:00,
2013-03-22 00:07:00,9.4,5.5,30.07,ESE,117,5.0,9.0,84,0.00,,,0.00,VWS V14.01,2013-03-22 05:07:00,
2013-03-22 00:12:00,9.3,5.4,30.07,East,101,3.0,9.0,84,0.00,,,0.00,VWS V14.01,2013-03-22 05:12:00,
2013-03-22 00:15:00,10.4,6.4,30.08,ESE,103,7.0,10.0,84,0.00,,,0.00,VWS V14.01,2013-03-22 05:15:00,
2013-03-22 00:17:00,9.4,5.7,30.06,East,94,3.0,7.0,85,0.00,,,0.00,VWS V14.01,2013-03-22 05:17:00,
2013-03-22 00:22:00,9.5,5.8,30.06,ESE,105,3.0,10.0,85,0.00,,,0.00,VWS V14.01,2013-03-22 05:22:00,
2013-03-22 00:27:00,9.5,5.8,30.06,ESE,106,4.0,10.0,85,0.00,,,0.00,VWS V14.01,2013-03-22 05:27:00,
2013-03-22 00:30:00,10.3,6.4,30.07,East,84,3.0,13.0,84,0.00,,,0.00,VWS V14.01,2013-03-22 05:30:00,
2013-03-22 00:32:00,9.4,5.7,30.06,East,88,5.0,10.0,85,0.00,,,0.00,VWS V14.01,2013-03-22 05:32:00,
2013-03-22 00:37:00,9.4,5.7,30.06,East,97,5.0,10.0,85,0.00,,,0.00,VWS V14.01,2013-03-22 05:37:00,
2013-03-22 00:42:00,9.3,5.6,30.05,ESE,113,8.0,10.0,85,0.00,,,0.00,VWS V14.01,2013-03-22 05:42:00,
2013-03-22 00:45:00,10.0,6.1,30.07,East,82,3.0,9.0,84,0.00,,,0.00,VWS V14.01,2013-03-22 05:45:00,
2013-03-22 00:47:00,9.2,5.5,30.05,ESE,114,5.0,9.0,85,0.00,,,0.00,VWS V14.01,2013-03-22 05:47:00,
2013-03-22 00:52:00,9.1,5.4,30.05,ESE,110,5.0,9.0,85,0.00,,,0.00,VWS V14.01,2013-03-22 05:52:00,
2013-03-22 00:57:00,9.1,5.4,30.05,ESE,107,2.0,10.0,85,0.00,,,0.00,VWS V14.01,2013-03-22 05:57:00,
2013-03-22 01:00:00,9.5,5.6,30.07,SE,124,3.0,10.0,84,0.00,,,0.00,VWS V14.01,2013-03-22 06:00:00,
2013-03-22 01:02:00,8.9,5.2,30.05,ESE,111,3.0,7.0,85,0.00,,,0.00,VWS V14.01,2013-03-22 06:02:00,
2013-03-22 01:07:00,8.7,5.1,30.05,East,88,5.0,8.0,85,0.00,,,0.00,VWS V14.01,2013-03-22 06:07:00,
2013-03-22 01:12:00,8.6,4.9,30.05,East,98,2.0,8.0,85,0.00,,,0.00,VWS V14.01,2013-03-22 06:12:00,
2013-03-22 01:15:00,9.3,5.6,30.06,East,96,3.0,9.0,85,0.00,,,0.00,VWS V14.01,2013-03-22 06:15:00,
2013-03-22 01:17:00,8.6,4.9,30.05,ESE,104,1.0,8.0,85,0.00,,,0.00,VWS V14.01,2013-03-22 06:17:00,
2013-03-22 01:22:00,8.6,4.9,30.05,ESE,105,4.0,8.0,85,0.00,,,0.00,VWS V14.01,2013-03-22 06:22:00,
2013-03-22 01:27:00,8.5,4.8,30.05,ESE,112,5.0,10.0,85,0.00,,,0.00,VWS V14.01,2013-03-22 06:27:00,
2013-03-22 01:30:00,9.5,5.8,30.06,East,93,6.0,10.0,85,0.00,,,0.00,VWS V14.01,2013-03-22 06:30:00,
2013-03-22 01:32:00,8.5,5.1,30.05,ESE,113,3.0,8.0,86,0.00,,,0.00,VWS V14.01,2013-03-22 06:32:00,
2013-03-22 01:37:00,8.6,5.2,30.05,ESE,105,8.0,11.0,86,0.00,,,0.00,VWS V14.01,2013-03-22 06:37:00,
2013-03-22 01:43:00,8.6,4.9,30.06,ESE,106,4.0,11.0,85,0.00,,,0.00,VWS V14.01,2013-03-22 06:43:00,
2013-03-22 01:45:00,9.2,5.5,30.06,East,82,5.0,10.0,85,0.00,,,0.00,VWS V14.01,2013-03-22 06:45:00,
2013-03-22 01:48:00,8.6,4.9,30.05,East,101,1.0,7.0,85,0.00,,,0.00,VWS V14.01,2013-03-22 06:48:00,
2013-03-22 01:52:00,8.6,4.9,30.06,ENE,75,7.0,8.0,85,0.00,,,0.00,VWS V14.01,2013-03-22 06:52:00,
2013-03-22 01:57:00,8.5,4.8,30.06,East,93,2.0,8.0,85,0.00,,,0.00,VWS V14.01,2013-03-22 06:57:00,
2013-03-22 02:00:00,9.0,5.3,30.05,ESE,116,5.0,10.0,85,0.00,,,0.00,VWS V14.01,2013-03-22 07:00:00,
2013-03-22 02:02:00,8.6,5.2,30.06,SE,126,4.0,9.0,86,0.00,,,0.00,VWS V14.01,2013-03-22 07:02:00,
2013-03-22 02:07:00,8.7,5.3,30.06,ESE,112,2.0,9.0,86,0.00,,,0.00,VWS V14.01,2013-03-22 07:07:00,
2013-03-22 02:12:00,8.8,5.4,30.06,ESE,117,4.0,9.0,86,0.00,,,0.00,VWS V14.01,2013-03-22 07:12:00,
2013-03-22 02:15:00,8.6,4.9,30.05,ESE,114,3.0,8.0,85,0.00,,,0.00,VWS V14.01,2013-03-22 07:15:00,
2013-03-22 02:17:00,8.8,5.4,30.05,ESE,112,2.0,8.0,86,0.00,,,0.00,VWS V14.01,2013-03-22 07:17:00,
2013-03-22 02:22:00,8.9,5.5,30.05,East,99,2.0,8.0,86,0.00,,,0.00,VWS V14.01,2013-03-22 07:22:00,
2013-03-22 02:27:00,8.9,5.2,30.05,ESE,118,2.0,8.0,85,0.00,,,0.00,VWS V14.01,2013-03-22 07:27:00,
2013-03-22 02:30:00,8.5,4.8,30.05,East,97,6.0,10.0,85,0.00,,,0.00,VWS V14.01,2013-03-22 07:30:00,
2013-03-22 02:32:00,8.8,5.1,30.05,ESE,111,3.0,8.0,85,0.00,,,0.00,VWS V14.01,2013-03-22 07:32:00,
2013-03-22 02:37:00,8.7,5.1,30.05,SE,124,8.0,11.0,85,0.00,,,0.00,VWS V14.01,2013-03-22 07:37:00,
2013-03-22 02:42:00,8.7,5.1,30.05,ESE,107,8.0,11.0,85,0.00,,,0.00,VWS V14.01,2013-03-22 07:42:00,
2013-03-22 02:45:00,8.6,4.9,30.06,ESE,115,7.0,11.0,85,0.00,,,0.00,VWS V14.01,2013-03-22 07:45:00,
2013-03-22 02:47:00,8.6,4.9,30.05,ESE,117,4.0,8.0,85,0.00,,,0.00,VWS V14.01,2013-03-22 07:47:00,
2013-03-22 02:52:00,8.6,4.9,30.04,ESE,103,5.0,8.0,85,0.00,,,0.00,VWS V14.01,2013-03-22 07:52:00,
2013-03-22 02:57:00,8.7,5.3,30.04,ESE,107,5.0,10.0,86,0.00,,,0.00,VWS V14.01,2013-03-22 07:57:00,
2013-03-22 03:00:00,8.5,4.8,30.06,ESE,121,5.0,8.0,85,0.00,,,0.00,VWS V14.01,2013-03-22 08:00:00,
2013-03-22 03:02:00,8.9,5.5,30.04,ESE,114,5.0,10.0,86,0.00,,,0.00,VWS V14.01,2013-03-22 08:02:00,
2013-03-22 03:07:00,9.0,5.6,30.04,SE,134,1.0,10.0,86,0.00,,,0.00,VWS V14.01,2013-03-22 08:07:00,
2013-03-22 03:12:00,9.0,5.3,30.04,ESE,103,4.0,10.0,85,0.00,,,0.00,VWS V14.01,2013-03-22 08:12:00,
2013-03-22 03:15:00,8.8,5.4,30.06,SE,134,5.0,9.0,86,0.00,,,0.00,VWS V14.01,2013-03-22 08:15:00,
2013-03-22 03:17:00,9.1,5.4,30.04,East,88,8.0,11.0,85,0.00,,,0.00,VWS V14.01,2013-03-22 08:17:00,
2013-03-22 03:22:00,9.2,5.5,30.04,ESE,122,7.0,11.0,85,0.00,,,0.00,VWS V14.01,2013-03-22 08:22:00,
2013-03-22 03:27:00,9.1,5.4,30.05,SE,138,5.0,11.0,85,0.00,,,0.00,VWS V14.01,2013-03-22 08:27:00,
2013-03-22 03:30:00,8.8,5.1,30.05,ESE,113,3.0,8.0,85,0.00,,,0.00,VWS V14.01,2013-03-22 08:30:00,
2013-03-22 03:32:00,9.1,5.4,30.04,ESE,107,3.0,9.0,85,0.00,,,0.00,VWS V14.01,2013-03-22 08:32:00,
2013-03-22 03:37:00,9.0,5.3,30.04,ESE,114,4.0,9.0,85,0.00,,,0.00,VWS V14.01,2013-03-22 08:37:00,
2013-03-22 03:42:00,8.9,5.2,30.04,East,90,3.0,9.0,85,0.00,,,0.00,VWS V14.01,2013-03-22 08:42:00,
2013-03-22 03:45:00,8.6,4.9,30.05,ESE,102,3.0,11.0,85,0.00,,,0.00,VWS V14.01,2013-03-22 08:45:00,
2013-03-22 03:47:00,8.9,5.2,30.04,ESE,111,5.0,7.0,85,0.00,,,0.00,VWS V14.01,2013-03-22 08:47:00,
2013-03-22 03:52:00,8.9,5.2,30.04,ESE,108,2.0,7.0,85,0.00,,,0.00,VWS V14.01,2013-03-22 08:52:00,
2013-03-22 03:57:00,8.9,5.2,30.04,East,88,3.0,7.0,85,0.00,,,0.00,VWS V14.01,2013-03-22 08:57:00,
2013-03-22 04:00:00,8.8,5.4,30.04,ESE,119,8.0,10.0,86,0.00,,,0.00,VWS V14.01,2013-03-22 09:00:00,
2013-03-22 04:02:00,8.9,5.2,30.04,East,97,5.0,5.0,85,0.00,,,0.00,VWS V14.01,2013-03-22 09:02:00,
2013-03-22 04:07:00,8.9,5.2,30.04,East,97,5.0,5.0,85,0.00,,,0.00,VWS V14.01,2013-03-22 09:07:00,
2013-03-22 04:12:00,8.9,5.2,30.03,ESE,105,3.0,5.0,85,0.00,,,0.00,VWS V14.01,2013-03-22 09:12:00,
2013-03-22 04:15:00,9.0,5.3,30.04,SE,135,6.0,10.0,85,0.00,,,0.00,VWS V14.01,2013-03-22 09:15:00,
2013-03-22 04:17:00,8.7,5.1,30.03,East,84,0.0,7.0,85,0.00,,,0.00,VWS V14.01,2013-03-22 09:17:00,
2013-03-22 04:22:00,8.7,5.1,30.03,East,87,3.0,7.0,85,0.00,,,0.00,VWS V14.01,2013-03-22 09:22:00,
2013-03-22 04:27:00,8.6,4.9,30.03,East,92,5.0,8.0,85,0.00,,,0.00,VWS V14.01,2013-03-22 09:27:00,
2013-03-22 04:30:00,9.2,5.5,30.04,SE,143,6.0,11.0,85,0.00,,,0.00,VWS V14.01,2013-03-22 09:30:00,
2013-03-22 04:32:00,8.6,4.9,30.03,ESE,104,5.0,8.0,85,0.00,,,0.00,VWS V14.01,2013-03-22 09:32:00,
2013-03-22 04:37:00,8.5,4.8,30.03,East,95,3.0,9.0,85,0.00,,,0.00,VWS V14.01,2013-03-22 09:37:00,
2013-03-22 04:42:00,8.5,4.8,30.03,East,94,3.0,9.0,85,0.00,,,0.00,VWS V14.01,2013-03-22 09:42:00,
2013-03-22 04:45:00,8.9,5.2,30.04,East,88,2.0,9.0,85,0.00,,,0.00,VWS V14.01,2013-03-22 09:45:00,
2013-03-22 04:47:00,8.3,4.7,30.03,East,86,5.0,5.0,85,0.00,,,0.00,VWS V14.01,2013-03-22 09:47:00,
2013-03-22 04:52:00,8.3,4.7,30.02,East,101,3.0,6.0,85,0.00,,,0.00,VWS V14.01,2013-03-22 09:52:00,
2013-03-22 04:57:00,8.1,4.5,30.02,East,95,3.0,7.0,85,0.00,,,0.00,VWS V14.01,2013-03-22 09:57:00,
2013-03-22 05:00:00,8.9,5.2,30.04,East,97,5.0,8.0,85,0.00,,,0.00,VWS V14.01,2013-03-22 10:00:00,
2013-03-22 05:02:00,8.1,4.5,30.02,East,90,3.0,7.0,85,0.00,,,0.00,VWS V14.01,2013-03-22 10:02:00,
2013-03-22 05:07:00,8.0,4.4,30.02,East,95,3.0,7.0,85,0.00,,,0.00,VWS V14.01,2013-03-22 10:07:00,
2013-03-22 05:12:00,7.9,4.3,30.01,East,100,5.0,7.0,85,0.00,,,0.00,VWS V14.01,2013-03-22 10:12:00,
2013-03-22 05:15:00,8.7,5.1,30.03,East,80,2.0,7.0,85,0.00,,,0.00,VWS V14.01,2013-03-22 10:15:00,
2013-03-22 05:17:00,7.7,4.1,30.02,ESE,114,5.0,7.0,85,0.00,,,0.00,VWS V14.01,2013-03-22 10:17:00,
2013-03-22 05:22:00,7.6,4.0,30.01,ESE,106,4.0,8.0,85,0.00,,,0.00,VWS V14.01,2013-03-22 10:22:00,
2013-03-22 05:27:00,7.6,4.2,30.01,ESE,113,7.0,9.0,86,0.00,,,0.00,VWS V14.01,2013-03-22 10:27:00,
2013-03-22 05:30:00,8.6,4.9,30.03,East,94,3.0,8.0,85,0.00,,,0.00,VWS V14.01,2013-03-22 10:30:00,
2013-03-22 05:32:00,7.6,4.2,30.01,ESE,114,7.0,8.0,86,0.00,,,0.00,VWS V14.01,2013-03-22 10:32:00,
2013-03-22 05:37:00,7.4,3.8,30.01,ESE,113,4.0,9.0,85,0.00,,,0.00,VWS V14.01,2013-03-22 10:37:00,
2013-03-22 05:42:00,7.4,4.0,30.01,ESE,104,1.0,9.0,86,0.00,,,0.00,VWS V14.01,2013-03-22 10:42:00,
2013-03-22 05:45:00,8.4,4.8,30.02,East,87,5.0,9.0,85,0.00,,,0.00,VWS V14.01,2013-03-22 10:45:00,
2013-03-22 05:47:00,7.4,4.0,30.01,ESE,103,1.0,5.0,86,0.00,,,0.00,VWS V14.01,2013-03-22 10:47:00,
2013-03-22 05:52:00,7.4,4.0,30.01,ESE,106,2.0,7.0,86,0.00,,,0.00,VWS V14.01,2013-03-22 10:52:00,
2013-03-22 05:57:00,7.5,4.1,30.01,ESE,103,4.0,7.0,86,0.00,,,0.00,VWS V14.01,2013-03-22 10:57:00,
2013-03-22 06:00:00,8.1,4.5,30.02,East,94,6.0,7.0,85,0.00,,,0.00,VWS V14.01,2013-03-22 11:00:00,
2013-03-22 06:02:00,7.4,4.0,30.01,East,98,5.0,6.0,86,0.00,,,0.00,VWS V14.01,2013-03-22 11:02:00,
2013-03-22 06:07:00,7.4,4.0,30.01,East,92,6.0,8.0,86,0.00,,,0.00,VWS V14.01,2013-03-22 11:07:00,
2013-03-22 06:12:00,7.3,3.9,30.01,East,99,5.0,8.0,86,0.00,,,0.00,VWS V14.01,2013-03-22 11:12:00,
2013-03-22 06:15:00,7.8,4.2,30.02,ESE,107,3.0,7.0,85,0.00,,,0.00,VWS V14.01,2013-03-22 11:15:00,
2013-03-22 06:17:00,7.3,3.7,30.01,East,86,2.0,3.0,85,0.00,,,0.00,VWS V14.01,2013-03-22 11:17:00,
2013-03-22 06:22:00,7.2,3.6,30.01,ENE,76,4.0,8.0,85,0.00,,,0.00,VWS V14.01,2013-03-22 11:22:00,
2013-03-22 06:27:00,7.1,3.5,30.01,East,86,5.0,8.0,85,0.00,,,0.00,VWS V14.01,2013-03-22 11:27:00,
2013-03-22 06:30:00,7.6,4.2,30.01,ESE,104,5.0,9.0,86,0.00,,,0.00,VWS V14.01,2013-03-22 11:30:00,
2013-03-22 06:32:00,6.9,3.3,30.00,East,83,2.0,7.0,85,0.00,,,0.00,VWS V14.01,2013-03-22 11:32:00,
2013-03-22 06:37:00,6.8,3.2,30.00,ENE,73,2.0,8.0,85,0.00,,,0.00,VWS V14.01,2013-03-22 11:37:00,
2013-03-22 06:42:00,6.6,3.0,30.01,ENE,76,3.0,8.0,85,0.00,,,0.00,VWS V14.01,2013-03-22 11:42:00,
2013-03-22 06:45:00,7.4,4.0,30.01,ESE,102,5.0,9.0,86,0.00,,,0.00,VWS V14.01,2013-03-22 11:45:00,
2013-03-22 06:47:00,6.5,2.9,30.01,East,81,5.0,7.0,85,0.00,,,0.00,VWS V14.01,2013-03-22 11:47:00,
2013-03-22 06:52:00,6.3,2.7,30.01,East,82,2.0,7.0,85,0.00,,,0.00,VWS V14.01,2013-03-22 11:52:00,
2013-03-22 06:57:00,6.2,2.6,30.02,ESE,106,2.0,8.0,85,0.00,,,0.00,VWS V14.01,2013-03-22 11:57:00,
2013-03-22 07:00:00,7.5,4.1,30.01,East,101,1.0,7.0,86,0.00,,,0.00,VWS V14.01,2013-03-22 12:00:00,
2013-03-22 07:02:00,6.0,2.4,30.02,East,92,3.0,8.0,85,0.00,,,0.00,VWS V14.01,2013-03-22 12:02:00,
2013-03-22 07:07:00,5.8,2.2,30.02,East,100,5.0,8.0,85,0.00,,,0.00,VWS V14.01,2013-03-22 12:07:00,
2013-03-22 07:12:00,5.6,1.8,30.03,East,90,7.0,9.0,84,0.00,,,0.00,VWS V14.01,2013-03-22 12:12:00,
2013-03-22 07:15:00,7.3,3.9,30.01,East,86,3.0,8.0,86,0.00,,,0.00,VWS V14.01,2013-03-22 12:15:00,
2013-03-22 07:17:00,5.5,1.9,30.03,East,95,5.0,7.0,85,0.00,,,0.00,VWS V14.01,2013-03-22 12:17:00,
2013-03-22 07:22:00,5.5,1.9,30.03,East,99,7.0,7.0,85,0.00,,,0.00,VWS V14.01,2013-03-22 12:22:00,
2013-03-22 07:27:00,5.3,1.7,30.03,East,88,3.0,8.0,85,0.00,,,0.00,VWS V14.01,2013-03-22 12:27:00,
2013-03-22 07:30:00,7.0,3.4,30.01,East,84,5.0,8.0,85,0.00,,,0.00,VWS V14.01,2013-03-22 12:30:00,
2013-03-22 07:32:00,5.2,1.6,30.03,East,92,3.0,7.0,85,0.00,,,0.00,VWS V14.01,2013-03-22 12:32:00,
2013-03-22 07:37:00,5.2,1.6,30.03,East,94,3.0,7.0,85,0.00,,,0.00,VWS V14.01,2013-03-22 12:37:00,
2013-03-22 07:42:00,5.2,1.6,30.03,East,88,6.0,7.0,85,0.00,,,0.00,VWS V14.01,2013-03-22 12:42:00,
2013-03-22 07:45:00,6.5,2.9,30.01,ENE,78,4.0,8.0,85,0.00,,,0.00,VWS V14.01,2013-03-22 12:45:00,
2013-03-22 07:47:00,5.2,1.6,30.02,ENE,76,5.0,8.0,85,0.00,,,0.00,VWS V14.01,2013-03-22 12:47:00,
2013-03-22 07:52:00,5.2,1.6,30.02,East,85,6.0,8.0,85,0.00,,,0.00,VWS V14.01,2013-03-22 12:52:00,
2013-03-22 07:57:00,5.1,1.5,30.02,East,80,5.0,9.0,85,0.00,,,0.00,VWS V14.01,2013-03-22 12:57:00,
2013-03-22 08:00:00,6.1,2.5,30.02,East,88,5.0,8.0,85,0.00,,,0.00,VWS V14.01,2013-03-22 13:00:00,
2013-03-22 08:02:00,5.2,1.6,30.02,East,96,6.0,8.0,85,0.00,,,0.00,VWS V14.01,2013-03-22 13:02:00,
2013-03-22 08:07:00,5.1,1.5,30.02,ESE,106,2.0,8.0,85,0.00,,,0.00,VWS V14.01,2013-03-22 13:07:00,
2013-03-22 08:12:00,5.1,1.5,30.02,East,101,7.0,10.0,85,0.00,,,0.00,VWS V14.01,2013-03-22 13:12:00,
2013-03-22 08:15:00,5.5,1.9,30.03,East,88,5.0,9.0,85,0.00,,,0.00,VWS V14.01,2013-03-22 13:15:00,
2013-03-22 08:17:00,5.2,1.6,30.02,ESE,105,3.0,3.0,85,0.00,,,0.00,VWS V14.01,2013-03-22 13:17:00,
2013-03-22 08:22:00,5.5,1.9,30.02,East,99,3.0,7.0,85,0.00,,,0.00,VWS V14.01,2013-03-22 13:22:00,
2013-03-22 08:27:00,5.8,2.2,30.02,ESE,113,8.0,10.0,85,0.00,,,0.00,VWS V14.01,2013-03-22 13:27:00,
2013-03-22 08:30:00,5.3,1.7,30.03,East,84,5.0,8.0,85,0.00,,,0.00,VWS V14.01,2013-03-22 13:30:00,
2013-03-22 08:32:00,6.1,2.5,30.02,SE,126,6.0,8.0,85,0.00,,,0.00,VWS V14.01,2013-03-22 13:32:00,
2013-03-22 08:37:00,6.6,3.0,30.02,SE,126,5.0,9.0,85,0.00,,,0.00,VWS V14.01,2013-03-22 13:37:00,
2013-03-22 08:42:00,7.0,3.4,30.02,SE,125,6.0,10.0,85,0.00,,,0.00,VWS V14.01,2013-03-22 13:42:00,
2013-03-22 08:45:00,5.2,1.6,30.03,East,90,3.0,7.0,85,0.00,,,0.00,VWS V14.01,2013-03-22 13:45:00,
2013-03-22 08:47:00,7.2,3.3,30.02,East,99,5.0,9.0,84,0.00,,,0.00,VWS V14.01,2013-03-22 13:47:00,
2013-03-22 08:52:00,7.5,3.6,30.02,ESE,115,4.0,9.0,84,0.00,,,0.00,VWS V14.01,2013-03-22 13:52:00,
2013-03-22 08:57:00,7.8,3.9,30.02,ESE,110,4.0,10.0,84,0.00,,,0.00,VWS V14.01,2013-03-22 13:57:00,
2013-03-22 09:00:00,5.2,1.6,30.02,East,83,3.0,9.0,85,0.00,,,0.00,VWS V14.01,2013-03-22 14:00:00,
2013-03-22 09:02:00,8.1,3.9,30.02,SE,126,3.0,9.0,83,0.00,,,0.00,VWS V14.01,2013-03-22 14:02:00,
2013-03-22 09:07:00,8.4,4.2,30.02,ESE,109,4.0,9.0,83,0.00,,,0.00,VWS V14.01,2013-03-22 14:07:00,
2013-03-22 09:12:00,8.6,4.2,30.02,ESE,106,3.0,9.0,82,0.00,,,0.00,VWS V14.01,2013-03-22 14:12:00,
2013-03-22 09:15:00,5.2,1.6,30.02,ESE,105,3.0,10.0,85,0.00,,,0.00,VWS V14.01,2013-03-22 14:15:00,
2013-03-22 09:17:00,8.7,4.3,30.02,ESE,109,4.0,7.0,82,0.00,,,0.00,VWS V14.01,2013-03-22 14:17:00,
2013-03-22 09:22:00,9.0,4.6,30.02,SE,129,3.0,8.0,82,0.00,,,0.00,VWS V14.01,2013-03-22 14:22:00,
2013-03-22 09:27:00,9.2,4.5,30.01,East,98,3.0,9.0,81,0.00,,,0.00,VWS V14.01,2013-03-22 14:27:00,
2013-03-22 09:30:00,6.0,2.4,30.02,ESE,117,5.0,10.0,85,0.00,,,0.00,VWS V14.01,2013-03-22 14:30:00,
2013-03-22 09:32:00,9.4,4.7,30.01,ESE,113,4.0,10.0,81,0.00,,,0.00,VWS V14.01,2013-03-22 14:32:00,
2013-03-22 09:37:00,9.5,4.8,30.01,East,101,5.0,12.0,81,0.00,,,0.00,VWS V14.01,2013-03-22 14:37:00,
2013-03-22 09:42:00,9.6,4.6,30.01,East,94,8.0,12.0,80,0.00,,,0.00,VWS V14.01,2013-03-22 14:42:00,
2013-03-22 09:45:00,7.1,3.2,30.02,ESE,117,5.0,10.0,84,0.00,,,0.00,VWS V14.01,2013-03-22 14:45:00,
2013-03-22 09:47:00,9.9,4.9,30.01,ESE,115,3.0,7.0,80,0.00,,,0.00,VWS V14.01,2013-03-22 14:47:00,
2013-03-22 09:52:00,10.2,5.2,30.01,ESE,110,3.0,7.0,80,0.00,,,0.00,VWS V14.01,2013-03-22 14:52:00,
2013-03-22 09:57:00,10.4,5.1,30.01,SE,131,2.0,10.0,79,0.00,,,0.00,VWS V14.01,2013-03-22 14:57:00,
2013-03-22 10:00:00,8.0,3.8,30.02,ESE,105,7.0,10.0,83,0.00,,,0.00,VWS V14.01,2013-03-22 15:00:00,
2013-03-22 10:02:00,10.4,5.1,30.01,SE,131,2.0,2.0,79,0.00,,,0.00,VWS V14.01,2013-03-22 15:02:00,
2013-03-22 10:07:00,11.0,5.7,30.01,East,94,3.0,6.0,79,0.00,,,0.00,VWS V14.01,2013-03-22 15:07:00,
2013-03-22 10:12:00,11.3,6.0,30.01,East,96,2.0,6.0,79,0.00,,,0.00,VWS V14.01,2013-03-22 15:12:00,
2013-03-22 10:15:00,8.6,4.2,30.02,SE,134,2.0,10.0,82,0.00,,,0.00,VWS V14.01,2013-03-22 15:15:00,
2013-03-22 10:17:00,11.6,6.0,30.01,SE,139,4.0,5.0,78,0.00,,,0.00,VWS V14.01,2013-03-22 15:17:00,
2013-03-22 10:22:00,11.8,6.2,30.02,SE,129,4.0,8.0,78,0.00,,,0.00,VWS V14.01,2013-03-22 15:22:00,
2013-03-22 10:27:00,11.9,6.0,30.01,ESE,111,4.0,9.0,77,0.00,,,0.00,VWS V14.01,2013-03-22 15:27:00,
2013-03-22 10:30:00,9.3,4.6,30.01,ESE,118,4.0,10.0,81,0.00,,,0.00,VWS V14.01,2013-03-22 15:30:00,
2013-03-22 10:32:00,11.9,6.0,30.01,ESE,121,7.0,11.0,77,0.00,,,0.00,VWS V14.01,2013-03-22 15:32:00,
2013-03-22 10:37:00,12.1,6.2,30.01,ESE,115,3.0,11.0,77,0.00,,,0.00,VWS V14.01,2013-03-22 15:37:00,
2013-03-22 10:42:00,12.5,6.6,30.01,ESE,107,2.0,11.0,77,0.00,,,0.00,VWS V14.01,2013-03-22 15:42:00,
2013-03-22 10:45:00,9.7,4.7,30.01,ESE,108,4.0,12.0,80,0.00,,,0.00,VWS V14.01,2013-03-22 15:45:00,
2013-03-22 10:47:00,12.7,6.8,30.01,East,94,5.0,8.0,77,0.00,,,0.00,VWS V14.01,2013-03-22 15:47:00,
2013-03-22 10:52:00,12.9,6.7,30.01,East,98,5.0,8.0,76,0.00,,,0.00,VWS V14.01,2013-03-22 15:52:00,
2013-03-22 10:57:00,12.9,6.7,30.01,East,89,6.0,9.0,76,0.00,,,0.00,VWS V14.01,2013-03-22 15:57:00,
2013-03-22 11:00:00,10.4,5.1,30.02,SE,131,2.0,10.0,79,0.00,,,0.00,VWS V14.01,2013-03-22 16:00:00,
2013-03-22 11:02:00,12.9,6.7,30.01,ESE,102,9.0,9.0,76,0.00,,,0.00,VWS V14.01,2013-03-22 16:02:00,
2013-03-22 11:07:00,12.8,6.6,30.01,East,80,2.0,9.0,76,0.00,,,0.00,VWS V14.01,2013-03-22 16:07:00,
2013-03-22 11:12:00,13.0,6.8,30.01,East,89,5.0,9.0,76,0.00,,,0.00,VWS V14.01,2013-03-22 16:12:00,
2013-03-22 11:15:00,11.4,6.1,30.02,SE,143,4.0,7.0,79,0.00,,,0.00,VWS V14.01,2013-03-22 16:15:00,
2013-03-22 11:17:00,13.1,6.9,30.01,East,92,3.0,6.0,76,0.00,,,0.00,VWS V14.01,2013-03-22 16:17:00,
2013-03-22 11:22:00,13.1,6.6,30.01,East,98,7.0,9.0,75,0.00,,,0.00,VWS V14.01,2013-03-22 16:22:00,
2013-03-22 11:27:00,13.0,6.8,30.01,East,90,3.0,9.0,76,0.00,,,0.00,VWS V14.01,2013-03-22 16:27:00,
2013-03-22 11:30:00,11.9,6.0,30.01,ESE,116,3.0,9.0,77,0.00,,,0.00,VWS V14.01,2013-03-22 16:30:00,
2013-03-22 11:32:00,13.2,7.0,30.01,East,94,5.0,6.0,76,0.00,,,0.00,VWS V14.01,2013-03-22 16:32:00,
2013-03-22 11:37:00,13.3,7.1,30.01,East,92,9.0,9.0,76,0.00,,,0.00,VWS V14.01,2013-03-22 16:37:00,
2013-03-22 11:42:00,13.2,7.0,30.01,East,87,7.0,9.0,76,0.00,,,0.00,VWS V14.01,2013-03-22 16:42:00,
2013-03-22 11:45:00,12.6,6.7,30.01,East,101,3.0,11.0,77,0.00,,,0.00,VWS V14.01,2013-03-22 16:45:00,
2013-03-22 11:47:00,13.2,7.0,30.01,East,92,7.0,8.0,76,0.00,,,0.00,VWS V14.01,2013-03-22 16:47:00,
2013-03-22 11:52:00,13.5,7.3,30.01,ENE,78,4.0,9.0,76,0.00,,,0.00,VWS V14.01,2013-03-22 16:52:00,
2013-03-22 11:58:00,13.7,7.5,30.01,East,87,5.0,9.0,76,0.00,,,0.00,VWS V14.01,2013-03-22 16:58:00,
2013-03-22 12:00:00,12.9,6.7,30.01,East,86,5.0,9.0,76,0.00,,,0.00,VWS V14.01,2013-03-22 17:00:00,
2013-03-22 12:03:00,13.7,7.2,30.01,East,101,5.0,9.0,75,0.00,,,0.00,VWS V14.01,2013-03-22 17:03:00,
2013-03-22 12:08:00,14.1,7.6,30.01,East,89,5.0,9.0,75,0.00,,,0.00,VWS V14.01,2013-03-22 17:08:00,
2013-03-22 12:13:00,14.4,7.8,30.01,East,84,5.0,9.0,75,0.00,,,0.00,VWS V14.01,2013-03-22 17:13:00,
2013-03-22 12:15:00,13.0,6.8,30.01,East,90,5.0,9.0,76,0.00,,,0.00,VWS V14.01,2013-03-22 17:15:00,
2013-03-22 12:18:00,14.7,8.1,30.01,ESE,107,5.0,9.0,75,0.00,,,0.00,VWS V14.01,2013-03-22 17:18:00,
2013-03-22 12:23:00,14.8,8.2,30.01,East,86,3.0,9.0,75,0.00,,,0.00,VWS V14.01,2013-03-22 17:23:00,
2013-03-22 12:28:00,14.7,8.1,30.01,East,84,8.0,10.0,75,0.00,,,0.00,VWS V14.01,2013-03-22 17:28:00,
2013-03-22 12:30:00,13.2,7.0,30.01,East,88,6.0,9.0,76,0.00,,,0.00,VWS V14.01,2013-03-22 17:30:00,
2013-03-22 12:32:00,14.4,7.8,30.01,ENE,76,7.0,10.0,75,0.00,,,0.00,VWS V14.01,2013-03-22 17:32:00,
2013-03-22 12:37:00,14.0,7.5,30.01,East,90,7.0,11.0,75,0.00,,,0.00,VWS V14.01,2013-03-22 17:37:00,
2013-03-22 12:42:00,14.0,7.8,30.01,East,88,7.0,11.0,76,0.00,,,0.00,VWS V14.01,2013-03-22 17:42:00,
2013-03-22 12:45:00,13.2,7.0,30.01,SE,125,3.0,9.0,76,0.00,,,0.00,VWS V14.01,2013-03-22 17:45:00,
2013-03-22 12:47:00,14.1,7.8,30.01,ENE,73,8.0,8.0,76,0.00,,,0.00,VWS V14.01,2013-03-22 17:47:00,
2013-03-22 12:52:00,14.1,7.8,30.01,East,92,5.0,11.0,76,0.00,,,0.00,VWS V14.01,2013-03-22 17:52:00,
2013-03-22 12:57:00,14.2,8.2,30.01,East,86,7.0,11.0,77,0.00,,,0.00,VWS V14.01,2013-03-22 17:57:00,
2013-03-22 13:00:00,13.7,7.2,30.01,East,85,5.0,9.0,75,0.00,,,0.00,VWS V14.01,2013-03-22 18:00:00,
2013-03-22 13:02:00,14.3,8.3,30.01,East,84,7.0,9.0,77,0.00,,,0.00,VWS V14.01,2013-03-22 18:02:00,
2013-03-22 13:07:00,14.1,8.4,30.01,ESE,108,8.0,10.0,78,0.00,,,0.00,VWS V14.01,2013-03-22 18:07:00,
2013-03-22 13:13:00,14.3,8.9,30.02,East,93,7.0,10.0,79,0.00,,,0.00,VWS V14.01,2013-03-22 18:13:00,
2013-03-22 13:15:00,14.6,8.0,30.00,East,84,5.0,9.0,75,0.00,,,0.00,VWS V14.01,2013-03-22 18:15:00,
2013-03-22 13:18:00,14.5,9.1,30.02,East,79,5.0,7.0,79,0.00,,,0.00,VWS V14.01,2013-03-22 18:18:00,
2013-03-22 13:23:00,14.7,9.3,30.02,ENE,74,9.0,9.0,79,0.00,,,0.00,VWS V14.01,2013-03-22 18:23:00,
2013-03-22 13:28:00,14.8,9.1,30.02,ESE,105,3.0,9.0,78,0.00,,,0.00,VWS V14.01,2013-03-22 18:28:00,
2013-03-22 13:30:00,14.4,7.8,30.01,East,89,7.0,10.0,75,0.00,,,0.00,VWS V14.01,2013-03-22 18:30:00,
2013-03-22 13:33:00,14.8,9.1,30.02,East,90,3.0,9.0,78,0.00,,,0.00,VWS V14.01,2013-03-22 18:33:00,
2013-03-22 13:38:00,14.9,9.2,30.02,East,86,5.0,13.0,78,0.00,,,0.00,VWS V14.01,2013-03-22 18:38:00,
2013-03-22 13:43:00,15.2,9.5,30.02,East,80,5.0,13.0,78,0.00,,,0.00,VWS V14.01,2013-03-22 18:43:00,
2013-03-22 13:45:00,14.1,8.1,30.01,East,80,5.0,11.0,77,0.00,,,0.00,VWS V14.01,2013-03-22 18:45:00,
2013-03-22 13:48:00,15.5,9.5,30.02,East,83,3.0,7.0,77,0.00,,,0.00,VWS V14.01,2013-03-22 18:48:00,
2013-03-22 13:53:00,15.7,9.7,30.02,East,86,5.0,8.0,77,0.00,,,0.00,VWS V14.01,2013-03-22 18:53:00,
2013-03-22 13:58:00,15.8,9.8,30.02,East,97,3.0,8.0,77,0.00,,,0.00,VWS V14.01,2013-03-22 18:58:00,
2013-03-22 14:00:00,14.3,8.3,30.01,East,96,7.0,11.0,77,0.00,,,0.00,VWS V14.01,2013-03-22 19:00:00,
2013-03-22 14:03:00,15.8,10.1,30.02,ENE,71,8.0,8.0,78,0.00,,,0.00,VWS V14.01,2013-03-22 19:03:00,
2013-03-22 14:08:00,15.6,9.9,30.02,ENE,74,2.0,9.0,78,0.00,,,0.00,VWS V14.01,2013-03-22 19:08:00,
2013-03-22 14:13:00,15.5,10.1,30.02,East,84,6.0,9.0,79,0.00,,,0.00,VWS V14.01,2013-03-22 19:13:00,
2013-03-22 14:15:00,14.3,8.9,30.02,East,87,6.0,10.0,79,0.00,,,0.00,VWS V14.01,2013-03-22 19:15:00,
2013-03-22 14:18:00,15.5,10.4,30.02,ENE,73,9.0,11.0,80,0.00,,,0.00,VWS V14.01,2013-03-22 19:18:00,
2013-03-22 14:23:00,15.2,10.1,30.02,East,86,8.0,11.0,80,0.00,,,0.00,VWS V14.01,2013-03-22 19:23:00,
2013-03-22 14:28:00,15.1,10.2,30.02,East,82,6.0,11.0,81,0.00,,,0.00,VWS V14.01,2013-03-22 19:28:00,
2013-03-22 14:30:00,14.9,9.5,30.02,ESE,114,7.0,9.0,79,0.00,,,0.00,VWS V14.01,2013-03-22 19:30:00,
2013-03-22 14:33:00,14.9,10.3,30.02,ESE,103,7.0,10.0,82,0.00,,,0.00,VWS V14.01,2013-03-22 19:33:00,
2013-03-22 14:38:00,14.9,10.3,30.02,ESE,102,3.0,10.0,82,0.00,,,0.00,VWS V14.01,2013-03-22 19:38:00,
2013-03-22 14:43:00,14.7,10.1,30.02,East,82,5.0,10.0,82,0.00,,,0.00,VWS V14.01,2013-03-22 19:43:00,
2013-03-22 14:45:00,15.4,9.7,30.02,ENE,75,3.0,13.0,78,0.00,,,0.00,VWS V14.01,2013-03-22 19:45:00,
2013-03-22 14:48:00,14.6,10.3,30.02,ESE,117,4.0,9.0,83,0.00,,,0.00,VWS V14.01,2013-03-22 19:48:00,
2013-03-22 14:53:00,14.7,10.4,30.02,East,80,3.0,9.0,83,0.00,,,0.00,VWS V14.01,2013-03-22 19:53:00,
2013-03-22 14:58:00,14.6,10.3,30.02,East,88,3.0,9.0,83,0.00,,,0.00,VWS V14.01,2013-03-22 19:58:00,
2013-03-22 15:00:00,15.8,9.8,30.02,East,89,5.0,9.0,77,0.00,,,0.00,VWS V14.01,2013-03-22 20:00:00,
2013-03-22 15:03:00,14.6,10.6,30.02,ESE,103,3.0,9.0,84,0.00,,,0.00,VWS V14.01,2013-03-22 20:03:00,
2013-03-22 15:08:00,14.7,10.7,30.02,East,82,6.0,11.0,84,0.00,,,0.00,VWS V14.01,2013-03-22 20:08:00,
2013-03-22 15:13:00,14.8,10.8,30.02,East,91,7.0,11.0,84,0.00,,,0.00,VWS V14.01,2013-03-22 20:13:00,
2013-03-22 15:15:00,15.4,10.3,30.02,East,79,5.0,9.0,80,0.00,,,0.00,VWS V14.01,2013-03-22 20:15:00,
2013-03-22 15:18:00,14.8,10.8,30.02,East,96,7.0,14.0,84,0.00,,,0.00,VWS V14.01,2013-03-22 20:18:00,
2013-03-22 15:23:00,15.0,11.2,30.02,ENE,76,7.0,14.0,85,0.00,,,0.00,VWS V14.01,2013-03-22 20:23:00,
2013-03-22 15:28:00,15.2,11.4,30.02,East,79,3.0,14.0,85,0.00,,,0.00,VWS V14.01,2013-03-22 20:28:00,
2013-03-22 15:30:00,14.9,10.1,30.02,ENE,69,4.0,11.0,81,0.00,,,0.00,VWS V14.01,2013-03-22 20:30:00,
2013-03-22 15:33:00,15.2,11.2,30.02,East,91,5.0,7.0,84,0.00,,,0.00,VWS V14.01,2013-03-22 20:33:00,
2013-03-22 15:38:00,15.2,11.2,30.02,ENE,66,2.0,9.0,84,0.00,,,0.00,VWS V14.01,2013-03-22 20:38:00,
2013-03-22 15:43:00,15.3,11.3,30.02,East,90,11.0,15.0,84,0.00,,,0.00,VWS V14.01,2013-03-22 20:43:00,
2013-03-22 15:45:00,14.6,10.0,30.02,ENE,73,4.0,10.0,82,0.00,,,0.00,VWS V14.01,2013-03-22 20:45:00,
2013-03-22 15:48:00,15.2,11.2,30.02,East,88,5.0,16.0,84,0.00,,,0.00,VWS V14.01,2013-03-22 20:48:00,
2013-03-22 15:53:00,15.5,11.7,30.02,ENE,70,7.0,16.0,85,0.00,,,0.00,VWS V14.01,2013-03-22 20:53:00,
2013-03-22 15:58:00,15.7,11.9,30.02,East,98,6.0,16.0,85,0.00,,,0.00,VWS V14.01,2013-03-22 20:58:00,
2013-03-22 16:00:00,14.6,10.3,30.02,ENE,73,7.0,10.0,83,0.00,,,0.00,VWS V14.01,2013-03-22 21:00:00,
2013-03-22 16:03:00,15.4,11.4,30.02,ENE,76,5.0,9.0,84,0.00,,,0.00,VWS V14.01,2013-03-22 21:03:00,
2013-03-22 16:08:00,15.6,11.8,30.02,ENE,70,7.0,10.0,85,0.00,,,0.00,VWS V14.01,2013-03-22 21:08:00,
2013-03-22 16:13:00,15.7,11.9,30.02,East,94,7.0,11.0,85,0.00,,,0.00,VWS V14.01,2013-03-22 21:13:00,
2013-03-22 16:15:00,14.8,10.8,30.02,East,96,9.0,11.0,84,0.00,,,0.00,VWS V14.01,2013-03-22 21:15:00,
2013-03-22 16:18:00,16.0,12.2,30.03,East,89,3.0,8.0,85,0.00,,,0.00,VWS V14.01,2013-03-22 21:18:00,
2013-03-22 16:23:00,16.0,12.2,30.03,East,88,6.0,9.0,85,0.00,,,0.00,VWS V14.01,2013-03-22 21:23:00,
2013-03-22 16:28:00,16.0,12.2,30.03,East,82,3.0,9.0,85,0.00,,,0.00,VWS V14.01,2013-03-22 21:28:00,
2013-03-22 16:30:00,15.3,11.5,30.02,East,98,5.0,14.0,85,0.00,,,0.00,VWS V14.01,2013-03-22 21:30:00,
2013-03-22 16:33:00,16.2,12.4,30.03,ESE,103,4.0,7.0,85,0.00,,,0.00,VWS V14.01,2013-03-22 21:33:00,
2013-03-22 16:38:00,16.4,12.6,30.03,East,94,5.0,7.0,85,0.00,,,0.00,VWS V14.01,2013-03-22 21:38:00,
2013-03-22 16:43:00,16.6,12.8,30.03,East,89,3.0,8.0,85,0.00,,,0.00,VWS V14.01,2013-03-22 21:43:00,
2013-03-22 16:45:00,15.2,11.2,30.02,ESE,102,10.0,20.0,84,0.00,,,0.00,VWS V14.01,2013-03-22 21:45:00,
2013-03-22 16:48:00,17.0,13.2,30.03,ENE,67,4.0,6.0,85,0.00,,,0.00,VWS V14.01,2013-03-22 21:48:00,
2013-03-22 16:53:00,17.3,13.8,30.04,East,85,3.0,7.0,86,0.00,,,0.00,VWS V14.01,2013-03-22 21:53:00,
2013-03-22 16:58:00,17.8,14.2,30.04,East,88,3.0,10.0,86,0.00,,,0.00,VWS V14.01,2013-03-22 21:58:00,
2013-03-22 17:00:00,15.5,11.5,30.02,East,84,6.0,16.0,84,0.00,,,0.00,VWS V14.01,2013-03-22 22:00:00,
2013-03-22 17:03:00,18.0,14.2,30.04,East,90,2.0,6.0,85,0.00,,,0.00,VWS V14.01,2013-03-22 22:03:00,
2013-03-22 17:08:00,18.0,14.2,30.04,East,91,5.0,8.0,85,0.00,,,0.00,VWS V14.01,2013-03-22 22:08:00,
2013-03-22 17:13:00,18.0,13.9,30.04,East,80,6.0,8.0,84,0.00,,,0.00,VWS V14.01,2013-03-22 22:13:00,
2013-03-22 17:15:00,15.8,12.0,30.02,East,92,3.0,11.0,85,0.00,,,0.00,VWS V14.01,2013-03-22 22:15:00,
2013-03-22 17:18:00,17.9,13.8,30.04,East,99,2.0,7.0,84,0.00,,,0.00,VWS V14.01,2013-03-22 22:18:00,
2013-03-22 17:23:00,18.0,14.2,30.04,East,83,3.0,7.0,85,0.00,,,0.00,VWS V14.01,2013-03-22 22:23:00,
2013-03-22 17:28:00,18.0,13.9,30.04,East,87,6.0,8.0,84,0.00,,,0.00,VWS V14.01,2013-03-22 22:28:00,
2013-03-22 17:30:00,16.1,12.3,30.03,ENE,71,5.0,9.0,85,0.00,,,0.00,VWS V14.01,2013-03-22 22:30:00,
2013-03-22 17:33:00,17.9,13.8,30.04,East,84,6.0,9.0,84,0.00,,,0.00,VWS V14.01,2013-03-22 22:33:00,
2013-03-22 17:38:00,17.8,13.7,30.04,East,91,3.0,9.0,84,0.00,,,0.00,VWS V14.01,2013-03-22 22:38:00,
2013-03-22 17:43:00,17.8,14.0,30.04,ENE,65,5.0,10.0,85,0.00,,,0.00,VWS V14.01,2013-03-22 22:43:00,
2013-03-22 17:45:00,16.8,13.3,30.03,East,84,2.0,8.0,86,0.00,,,0.00,VWS V14.01,2013-03-22 22:45:00,
2013-03-22 17:48:00,17.8,14.0,30.04,ENE,78,7.0,11.0,85,0.00,,,0.00,VWS V14.01,2013-03-22 22:48:00,
2013-03-22 17:53:00,17.9,14.1,30.04,East,82,10.0,12.0,85,0.00,,,0.00,VWS V14.01,2013-03-22 22:53:00,
2013-03-22 17:58:00,17.9,14.1,30.05,East,84,7.0,12.0,85,0.00,,,0.00,VWS V14.01,2013-03-22 22:58:00,
2013-03-22 18:00:00,17.9,14.1,30.04,East,80,3.0,10.0,85,0.00,,,0.00,VWS V14.01,2013-03-22 23:00:00,
2013-03-22 18:03:00,17.6,13.8,30.05,East,85,7.0,9.0,85,0.00,,,0.00,VWS V14.01,2013-03-22 23:03:00,
2013-03-22 18:08:00,17.5,14.0,30.05,East,81,7.0,9.0,86,0.00,,,0.00,VWS V14.01,2013-03-22 23:08:00,
2013-03-22 18:13:00,17.6,14.1,30.05,ENE,75,5.0,9.0,86,0.00,,,0.00,VWS V14.01,2013-03-22 23:13:00,
2013-03-22 18:15:00,17.9,13.8,30.04,East,79,6.0,8.0,84,0.00,,,0.00,VWS V14.01,2013-03-22 23:15:00,
2013-03-22 18:18:00,17.6,14.1,30.05,ENE,70,4.0,8.0,86,0.00,,,0.00,VWS V14.01,2013-03-22 23:18:00,
2013-03-22 18:23:00,17.7,14.1,30.05,East,82,5.0,8.0,86,0.00,,,0.00,VWS V14.01,2013-03-22 23:23:00,
2013-03-22 18:28:00,17.6,14.1,30.05,East,88,5.0,9.0,86,0.00,,,0.00,VWS V14.01,2013-03-22 23:28:00,
2013-03-22 18:30:00,18.0,13.9,30.04,East,96,5.0,8.0,84,0.00,,,0.00,VWS V14.01,2013-03-22 23:30:00,
2013-03-22 18:33:00,17.5,14.0,30.05,East,84,3.0,7.0,86,0.00,,,0.00,VWS V14.01,2013-03-22 23:33:00,
2013-03-22 18:38:00,17.4,13.9,30.05,ENE,78,4.0,9.0,86,0.00,,,0.00,VWS V14.01,2013-03-22 23:38:00,
2013-03-22 18:43:00,17.2,13.7,30.05,East,84,3.0,9.0,86,0.00,,,0.00,VWS V14.01,2013-03-22 23:43:00,
2013-03-22 18:45:00,17.7,13.9,30.04,ESE,107,7.0,12.0,85,0.00,,,0.00,VWS V14.01,2013-03-22 23:45:00,
2013-03-22 18:48:00,17.1,13.6,30.05,East,92,5.0,7.0,86,0.00,,,0.00,VWS V14.01,2013-03-22 23:48:00,
2013-03-22 18:53:00,17.0,13.5,30.05,East,91,2.0,8.0,86,0.00,,,0.00,VWS V14.01,2013-03-22 23:53:00,
2013-03-22 18:58:00,16.9,13.6,30.05,ENE,73,7.0,8.0,87,0.00,,,0.00,VWS V14.01,2013-03-22 23:58:00,
2013-03-22 19:00:00,17.7,13.9,30.05,East,85,6.0,12.0,85,0.00,,,0.00,VWS V14.01,2013-03-23 00:00:00,
2013-03-22 19:03:00,16.7,13.4,30.05,East,79,1.0,5.0,87,0.00,,,0.00,VWS V14.01,2013-03-23 00:03:00,
2013-03-22 19:08:00,16.6,13.3,30.06,ENE,69,7.0,8.0,87,0.00,,,0.00,VWS V14.01,2013-03-23 00:08:00,
2013-03-22 19:13:00,16.5,13.2,30.06,ENE,71,4.0,9.0,87,0.00,,,0.00,VWS V14.01,2013-03-23 00:13:00,
2013-03-22 19:15:00,17.6,14.1,30.05,East,83,6.0,9.0,86,0.00,,,0.00,VWS V14.01,2013-03-23 00:15:00,
2013-03-22 19:18:00,16.4,13.1,30.06,East,79,5.0,9.0,87,0.00,,,0.00,VWS V14.01,2013-03-23 00:18:00,
2013-03-22 19:23:00,16.3,13.0,30.06,East,84,6.0,9.0,87,0.00,,,0.00,VWS V14.01,2013-03-23 00:23:00,
2013-03-22 19:28:00,16.2,12.9,30.06,East,86,2.0,9.0,87,0.00,,,0.00,VWS V14.01,2013-03-23 00:28:00,
2013-03-22 19:30:00,17.5,14.0,30.05,East,98,5.0,9.0,86,0.00,,,0.00,VWS V14.01,2013-03-23 00:30:00,
2013-03-22 19:33:00,16.2,13.2,30.06,East,83,5.0,8.0,88,0.00,,,0.00,VWS V14.01,2013-03-23 00:33:00,
2013-03-22 19:38:00,16.2,13.2,30.06,ENE,74,8.0,9.0,88,0.00,,,0.00,VWS V14.01,2013-03-23 00:38:00,
2013-03-22 19:43:00,16.1,13.1,30.07,East,81,3.0,10.0,88,0.00,,,0.00,VWS V14.01,2013-03-23 00:43:00,
2013-03-22 19:45:00,17.2,13.7,30.05,East,95,3.0,9.0,86,0.00,,,0.00,VWS V14.01,2013-03-23 00:45:00,
2013-03-22 19:48:00,16.1,13.1,30.06,ESE,109,2.0,4.0,88,0.00,,,0.00,VWS V14.01,2013-03-23 00:48:00,
2013-03-22 19:53:00,16.1,13.1,30.07,East,80,2.0,6.0,88,0.00,,,0.00,VWS V14.01,2013-03-23 00:53:00,
2013-03-22 19:58:00,16.0,13.0,30.07,East,85,1.0,7.0,88,0.00,,,0.00,VWS V14.01,2013-03-23 00:58:00,
2013-03-22 20:00:00,16.8,13.5,30.05,ENE,78,3.0,8.0,87,0.00,,,0.00,VWS V14.01,2013-03-23 01:00:00,
2013-03-22 20:03:00,15.9,12.9,30.07,East,81,6.0,7.0,88,0.00,,,0.00,VWS V14.01,2013-03-23 01:03:00,
2013-03-22 20:08:00,15.9,12.9,30.07,East,83,6.0,7.0,88,0.00,,,0.00,VWS V14.01,2013-03-23 01:08:00,
2013-03-22 20:13:00,15.9,13.2,30.07,East,87,6.0,10.0,89,0.00,,,0.00,VWS V14.01,2013-03-23 01:13:00,
2013-03-22 20:15:00,16.5,13.2,30.06,ENE,74,4.0,9.0,87,0.00,,,0.00,VWS V14.01,2013-03-23 01:15:00,
2013-03-22 20:18:00,15.8,13.1,30.07,East,91,2.0,7.0,89,0.00,,,0.00,VWS V14.01,2013-03-23 01:18:00,
2013-03-22 20:23:00,15.8,13.1,30.07,East,85,5.0,7.0,89,0.00,,,0.00,VWS V14.01,2013-03-23 01:23:00,
2013-03-22 20:28:00,15.8,13.1,30.08,East,81,0.0,7.0,89,0.00,,,0.00,VWS V14.01,2013-03-23 01:28:00,
2013-03-22 20:30:00,16.3,13.0,30.06,ENE,71,4.0,9.0,87,0.00,,,0.00,VWS V14.01,2013-03-23 01:30:00,
2013-03-22 20:33:00,15.8,13.1,30.08,East,95,3.0,6.0,89,0.00,,,0.00,VWS V14.01,2013-03-23 01:33:00,
2013-03-22 20:38:00,15.7,13.0,30.08,ENE,78,2.0,8.0,89,0.00,,,0.00,VWS V14.01,2013-03-23 01:38:00,
2013-03-22 20:43:00,15.7,13.0,30.08,East,84,3.0,8.0,89,0.00,,,0.00,VWS V14.01,2013-03-23 01:43:00,
2013-03-22 20:45:00,16.1,13.1,30.06,ESE,109,2.0,10.0,88,0.00,,,0.00,VWS V14.01,2013-03-23 01:45:00,
2013-03-22 20:48:00,15.7,13.0,30.09,East,84,5.0,5.0,89,0.00,,,0.00,VWS V14.01,2013-03-23 01:48:00,
2013-03-22 20:53:00,15.7,13.0,30.09,East,84,5.0,5.0,89,0.00,,,0.00,VWS V14.01,2013-03-23 01:53:00,
2013-03-22 20:58:00,15.7,13.0,30.09,East,84,5.0,5.0,89,0.00,,,0.00,VWS V14.01,2013-03-23 01:58:00,
2013-03-22 21:00:00,16.0,13.0,30.07,East,80,3.0,8.0,88,0.00,,,0.00,VWS V14.01,2013-03-23 02:00:00,
2013-03-22 21:03:00,15.7,13.0,30.09,East,84,5.0,5.0,89,0.00,,,0.00,VWS V14.01,2013-03-23 02:03:00,
2013-03-22 21:08:00,15.7,13.0,30.09,East,84,5.0,5.0,89,0.00,,,0.00,VWS V14.01,2013-03-23 02:08:00,
2013-03-22 21:13:00,15.7,13.0,30.09,East,84,5.0,5.0,89,0.00,,,0.00,VWS V14.01,2013-03-23 02:13:00,
2013-03-22 21:15:00,15.9,13.2,30.07,East,81,3.0,10.0,89,0.00,,,0.00,VWS V14.01,2013-03-23 02:15:00,
2013-03-22 21:18:00,15.7,13.0,30.09,East,84,5.0,5.0,89,0.00,,,0.00,VWS V14.01,2013-03-23 02:18:00,
2013-03-22 21:23:00,15.7,13.0,30.09,East,84,5.0,5.0,89,0.00,,,0.00,VWS V14.01,2013-03-23 02:23:00,
2013-03-22 21:28:00,15.3,12.6,30.09,ENE,77,4.0,5.0,89,0.00,,,0.00,VWS V14.01,2013-03-23 02:28:00,
2013-03-22 21:30:00,15.8,13.1,30.08,East,94,3.0,9.0,89,0.00,,,0.00,VWS V14.01,2013-03-23 02:30:00,
2013-03-22 21:33:00,15.3,12.6,30.09,ENE,71,4.0,5.0,89,0.00,,,0.00,VWS V14.01,2013-03-23 02:33:00,
2013-03-22 21:38:00,15.2,12.5,30.09,ENE,73,0.0,5.0,89,0.00,,,0.00,VWS V14.01,2013-03-23 02:38:00,
2013-03-22 21:43:00,15.1,12.4,30.10,ENE,73,2.0,5.0,89,0.00,,,0.00,VWS V14.01,2013-03-23 02:43:00,
2013-03-22 21:45:00,15.7,13.0,30.09,East,84,5.0,8.0,89,0.00,,,0.00,VWS V14.01,2013-03-23 02:45:00,
2013-03-22 21:48:00,15.1,12.4,30.10,ENE,73,3.0,4.0,89,0.00,,,0.00,VWS V14.01,2013-03-23 02:48:00,
2013-03-22 21:53:00,15.0,12.3,30.10,ENE,73,3.0,4.0,89,0.00,,,0.00,VWS V14.01,2013-03-23 02:53:00,
2013-03-22 21:58:00,15.0,12.3,30.10,ENE,77,4.0,5.0,89,0.00,,,0.00,VWS V14.01,2013-03-23 02:58:00,
2013-03-22 22:00:00,15.7,13.0,30.09,East,84,5.0,5.0,89,0.00,,,0.00,VWS V14.01,2013-03-23 03:00:00,
2013-03-22 22:03:00,15.0,12.5,30.10,ENE,78,2.0,6.0,90,0.00,,,0.00,VWS V14.01,2013-03-23 03:03:00,
2013-03-22 22:08:00,14.9,12.4,30.10,ENE,70,2.0,7.0,90,0.00,,,0.00,VWS V14.01,2013-03-23 03:08:00,
2013-03-22 22:13:00,14.9,12.4,30.10,East,82,8.0,8.0,90,0.00,,,0.00,VWS V14.01,2013-03-23 03:13:00,
2013-03-22 22:15:00,15.7,13.0,30.09,East,84,5.0,5.0,89,0.00,,,0.00,VWS V14.01,2013-03-23 03:15:00,
2013-03-22 22:18:00,14.8,12.3,30.10,East,80,3.0,6.0,90,0.00,,,0.00,VWS V14.01,2013-03-23 03:18:00,
2013-03-22 22:23:00,14.7,12.2,30.10,East,87,5.0,9.0,90,0.00,,,0.00,VWS V14.01,2013-03-23 03:23:00,
2013-03-22 22:28:00,14.6,11.9,30.10,East,87,6.0,9.0,89,0.00,,,0.00,VWS V14.01,2013-03-23 03:28:00,
2013-03-22 22:30:00,15.3,12.6,30.09,ENE,71,2.0,5.0,89,0.00,,,0.00,VWS V14.01,2013-03-23 03:30:00,
2013-03-22 22:33:00,14.5,11.8,30.10,East,82,3.0,8.0,89,0.00,,,0.00,VWS V14.01,2013-03-23 03:33:00,
2013-03-22 22:38:00,14.5,11.8,30.10,East,84,3.0,8.0,89,0.00,,,0.00,VWS V14.01,2013-03-23 03:38:00,
2013-03-22 22:43:00,14.4,11.7,30.10,East,80,2.0,8.0,89,0.00,,,0.00,VWS V14.01,2013-03-23 03:43:00,
2013-03-22 22:45:00,15.1,12.4,30.10,ENE,73,2.0,5.0,89,0.00,,,0.00,VWS V14.01,2013-03-23 03:45:00,
2013-03-22 22:48:00,14.4,11.7,30.10,East,80,0.0,0.0,89,0.00,,,0.00,VWS V14.01,2013-03-23 03:48:00,
2013-03-22 22:53:00,14.3,11.8,30.11,ENE,77,2.0,3.0,90,0.00,,,0.00,VWS V14.01,2013-03-23 03:53:00,
2013-03-22 22:58:00,14.3,11.6,30.11,ENE,77,1.0,3.0,89,0.00,,,0.00,VWS V14.01,2013-03-23 03:58:00,
2013-03-22 23:00:00,14.3,11.6,30.11,ENE,77,2.0,3.0,89,0.00,,,0.00,VWS V14.01,2013-03-23 04:00:00,
2013-03-22 23:05:00,14.3,11.6,30.11,ENE,77,0.0,3.0,89,0.00,,,0.00,VWS V14.01,2013-03-23 04:05:00,
2013-03-22 23:10:00,14.2,11.5,30.11,ENE,77,0.0,3.0,89,0.00,,,0.00,VWS V14.01,2013-03-23 04:10:00,
2013-03-22 23:15:00,14.1,11.6,30.11,East,81,2.0,6.0,90,0.00,,,0.00,VWS V14.01,2013-03-23 04:15:00,
2013-03-22 23:20:00,14.1,11.6,30.11,East,81,3.0,5.0,90,0.00,,,0.00,VWS V14.01,2013-03-23 04:20:00,
2013-03-22 23:25:00,14.1,11.6,30.11,East,96,2.0,7.0,90,0.00,,,0.00,VWS V14.01,2013-03-23 04:25:00,
2013-03-22 23:30:00,14.1,11.6,30.11,East,96,2.0,7.0,90,0.00,,,0.00,VWS V14.01,2013-03-23 04:30:00,
2013-03-22 23:35:00,14.1,11.6,30.11,East,85,3.0,6.0,90,0.00,,,0.00,VWS V14.01,2013-03-23 04:35:00,
2013-03-22 23:40:00,14.1,11.6,30.11,ENE,77,5.0,7.0,90,0.00,,,0.00,VWS V14.01,2013-03-23 04:40:00,
2013-03-22 23:45:00,14.0,11.5,30.12,East,81,2.0,7.0,90,0.00,,,0.00,VWS V14.01,2013-03-23 04:45:00,
2013-03-22 23:50:00,14.0,11.5,30.12,East,84,5.0,7.0,90,0.00,,,0.00,VWS V14.01,2013-03-23 04:50:00,
2013-03-22 23:55:00,14.1,11.6,30.12,East,80,1.0,7.0,90,0.00,,,0.00,VWS V14.01,2013-03-23 04:55:00,